Donal G Mc Allister — WDA8725 — position and weather

sailwx.info

Track history (hours):
 
Tides and Currents Weather Stations Pressure Air Temp Water Temp Dewpoint Dewpoint Depression Visibility Wind Speed Wind Dir Waves Ship Positions

Donal G Mc Allister

Owner: MC ALLISTER TOWING & TRANSPORTATION INC, NEW YORK, NY. More information available from US FCC via Universal Licensing System and Coast Guard Vessel Documentation Center.

Last reported at 2018-Jul-20 05:32 UTC. Time now 2018-Jul-21 07:41 UTC.
Position N 31°53' W 080°47'.

Length 33 m; draft 4 m.

Type: Tug. MMSI: 366857410.

Date/timePositionNaut miles runAvg speedWind from/ knotsBaromVisibWave heightAir tempDewpointWater temp
2018-Jul-20 05:32N 31°53' W 080°47'0 8.1
2018-Jul-20 05:30N 31°53' W 080°47'4 8.1
2018-Jul-20 04:59N 31°57' W 080°45'4 7.9
2018-Jul-20 04:30N 31°60' W 080°42'62 7.9
2018-Jul-19 20:40N 32°44' W 079°51'210.1
2018-Jul-19 20:30N 32°46' W 079°52'4 8.5
2018-Jul-19 20:00N 32°49' W 079°55'3 3.1
2018-Jul-19 19:09N 32°51' W 079°57'0 0.0
2018-Jul-19 18:15N 32°51' W 079°57'0 0.0
2018-Jul-19 17:59N 32°51' W 079°57'0 0.0
2018-Jul-19 15:45N 32°51' W 079°57'2 5.9
2018-Jul-19 15:29N 32°50' W 079°56'1 1.7
2018-Jul-19 14:59N 32°50' W 079°56'0 0.0
2018-Jul-19 14:30N 32°50' W 079°56'0 0.0
2018-Jul-19 13:28N 32°50' W 079°56'  
2018-Jul-10 12:21N 32°51' W 079°57'0 0.0
2018-Jul-10 11:59N 32°51' W 079°57'0 0.0
2018-Jul-10 11:29N 32°51' W 079°57'0 0.0
2018-Jul-10 10:58N 32°51' W 079°57'  
Track history (hours):
 
Tides and Currents Weather Stations Pressure Air Temp Water Temp Dewpoint Dewpoint Depression Visibility Wind Speed Wind Dir Waves Ship Positions

Donal G Mc Allister

Owner: MC ALLISTER TOWING & TRANSPORTATION INC, NEW YORK, NY. More information available from US FCC via Universal Licensing System and Coast Guard Vessel Documentation Center.

Last reported at 2018-Jul-20 05:32 UTC. Time now 2018-Jul-21 07:41 UTC.
Position N 31°53' W 080°47'.

Length 33 m; draft 4 m.

Type: Tug. MMSI: 366857410.

Date/timePositionNaut miles runAvg speedWind from/ knotsBaromVisibWave heightAir tempDewpointWater temp
2018-Jul-20 05:32N 31°53' W 080°47'0 8.1
2018-Jul-20 05:30N 31°53' W 080°47'4 8.1
2018-Jul-20 04:59N 31°57' W 080°45'4 7.9
2018-Jul-20 04:30N 31°60' W 080°42'62 7.9
2018-Jul-19 20:40N 32°44' W 079°51'210.1
2018-Jul-19 20:30N 32°46' W 079°52'4 8.5
2018-Jul-19 20:00N 32°49' W 079°55'3 3.1
2018-Jul-19 19:09N 32°51' W 079°57'0 0.0
2018-Jul-19 18:15N 32°51' W 079°57'0 0.0
2018-Jul-19 17:59N 32°51' W 079°57'0 0.0
2018-Jul-19 15:45N 32°51' W 079°57'2 5.9
2018-Jul-19 15:29N 32°50' W 079°56'1 1.7
2018-Jul-19 14:59N 32°50' W 079°56'0 0.0
2018-Jul-19 14:30N 32°50' W 079°56'0 0.0
2018-Jul-19 13:28N 32°50' W 079°56'  
2018-Jul-10 12:21N 32°51' W 079°57'0 0.0
2018-Jul-10 11:59N 32°51' W 079°57'0 0.0
2018-Jul-10 11:29N 32°51' W 079°57'0 0.0
2018-Jul-10 10:58N 32°51' W 079°57'  

Dump ship's entire track history